createdAt,value
2019-04-23T00:00:03.423Z,2.70
2019-04-23T00:02:24.143Z,3.65
2019-04-23T00:04:54.177Z,2.60
2019-04-23T00:07:35.691Z,2.90
2019-04-23T00:10:03.428Z,2.12
2019-04-23T00:12:38.959Z,2.47
2019-04-23T00:17:37.134Z,2.10
2019-04-23T00:20:09.863Z,3.05
2019-04-23T00:22:44.891Z,8.50
2019-04-23T00:25:33.988Z,7.05
2019-04-23T00:27:50.272Z,14.13
2019-04-23T00:30:18.847Z,18.37
2019-04-23T00:32:48.084Z,14.50
2019-04-23T00:35:18.754Z,15.05
2019-04-23T00:37:55.151Z,10.78
2019-04-23T00:40:27.917Z,17.90
2019-04-23T00:43:02.079Z,22.60
2019-04-23T00:48:11.306Z,25.35
2019-04-23T00:53:04.530Z,27.98
2019-04-23T00:58:12.860Z,26.23
2019-04-23T01:03:12.550Z,20.10
2019-04-23T01:05:41.174Z,18.35
2019-04-23T01:08:18.585Z,21.33
2019-04-23T01:11:20.026Z,17.00
2019-04-23T01:13:47.503Z,20.25
2019-04-23T01:16:11.712Z,21.50
2019-04-23T01:18:51.466Z,17.98
2019-04-23T01:21:01.085Z,18.80
2019-04-23T01:23:42.614Z,18.27
2019-04-23T01:26:32.995Z,19.15
2019-04-23T01:29:06.986Z,20.25
2019-04-23T01:31:33.117Z,27.13
2019-04-23T01:34:13.469Z,24.45
2019-04-23T01:36:35.966Z,10.70
2019-04-23T01:39:23.118Z,11.70
2019-04-23T01:41:50.663Z,6.17
2019-04-23T01:49:31.198Z,6.33
2019-04-23T01:54:25.576Z,28.50
2019-04-23T01:57:06.303Z,30.43
2019-04-23T01:59:31.877Z,27.82
2019-04-23T02:02:06.828Z,17.77
2019-04-23T02:04:34.623Z,22.37
2019-04-23T02:07:06.553Z,18.45
2019-04-23T02:09:43.441Z,17.77
2019-04-23T02:12:11.437Z,16.12
2019-04-23T02:14:43.584Z,12.85
2019-04-23T02:17:34.063Z,13.62
2019-04-23T02:19:46.726Z,13.03
2019-04-23T02:22:27.987Z,22.93
2019-04-23T02:24:59.694Z,23.10
2019-04-23T02:27:19.314Z,17.87
2019-04-23T02:32:29.706Z,6.15
2019-04-23T02:35:09.661Z,3.17
2019-04-23T02:37:45.930Z,2.80
2019-04-23T02:40:14.210Z,2.65
2019-04-23T02:42:51.875Z,2.95
2019-04-23T02:48:03.383Z,2.72
2019-04-23T02:50:34.909Z,2.30
2019-04-23T02:55:41.475Z,2.90
2019-04-23T02:57:44.124Z,2.70
2019-04-23T03:03:01.700Z,2.83
2019-04-23T03:05:24.515Z,2.45
2019-04-23T03:07:53.277Z,2.60
2019-04-23T03:10:32.467Z,2.77
2019-04-23T03:13:01.612Z,2.55
2019-04-23T03:18:21.012Z,2.60
2019-04-23T03:23:50.059Z,2.55
2019-04-23T03:29:06.535Z,2.83
2019-04-23T03:34:02.877Z,4.70
2019-04-23T03:38:48.691Z,4.80
2019-04-23T03:48:51.153Z,11.73
2019-04-23T03:51:28.771Z,11.93
2019-04-23T03:54:23.475Z,20.45
2019-04-23T03:59:03.511Z,4.15
2019-04-23T04:01:58.132Z,3.00
2019-04-23T04:04:20.233Z,2.98
2019-04-23T04:06:43.713Z,3.00
2019-04-23T04:09:24.153Z,2.80
2019-04-23T04:11:29.184Z,3.00
2019-04-23T04:14:30.095Z,2.83
2019-04-23T04:19:24.693Z,7.60
2019-04-23T04:24:27.523Z,17.90
2019-04-23T04:26:59.461Z,16.40
2019-04-23T04:42:10.288Z,11.43
2019-04-23T04:44:41.136Z,82.55
2019-04-23T04:49:50.940Z,41.73
2019-04-23T04:57:20.867Z,5.17
2019-04-23T05:00:06.745Z,3.67
2019-04-23T05:02:27.353Z,3.58
2019-04-23T05:04:55.952Z,2.65
2019-04-23T05:07:40.160Z,2.85
2019-04-23T05:10:07.374Z,2.83
2019-04-23T05:22:52.625Z,2.58
2019-04-23T05:27:56.804Z,3.27
2019-04-23T05:32:52.033Z,2.90
2019-04-23T05:40:37.248Z,2.70
2019-04-23T05:45:30.235Z,3.02
2019-04-23T05:48:09.902Z,3.40
2019-04-23T05:53:07.727Z,9.55
2019-04-23T05:55:34.351Z,22.05
2019-04-23T05:58:15.375Z,8.10
2019-04-23T06:06:01.250Z,3.60
2019-04-23T06:08:25.560Z,4.15
2019-04-23T06:11:00.878Z,2.80
2019-04-23T06:13:26.040Z,2.95
2019-04-23T06:15:58.167Z,2.77
2019-04-23T06:18:30.489Z,2.98
2019-04-23T06:21:06.830Z,3.25
2019-04-23T06:23:38.160Z,5.55
2019-04-23T06:26:19.228Z,3.72
2019-04-23T06:28:46.687Z,3.10
2019-04-23T06:31:15.201Z,3.30
2019-04-23T06:33:47.983Z,3.27
2019-04-23T06:36:21.930Z,3.00
2019-04-23T06:41:23.910Z,3.52
2019-04-23T06:44:08.815Z,2.90
2019-04-23T06:46:28.687Z,3.20
2019-04-23T06:49:00.853Z,3.00
2019-04-23T06:54:04.891Z,2.95
2019-04-23T06:56:43.320Z,3.65
2019-04-23T06:59:12.879Z,3.55
2019-04-23T07:01:51.056Z,3.20
2019-04-23T07:06:58.202Z,3.77
2019-04-23T07:12:05.316Z,3.55
2019-04-23T07:14:26.129Z,3.42
2019-04-23T07:16:52.807Z,3.12
2019-04-23T07:22:03.300Z,3.52
2019-04-23T07:24:28.689Z,3.60
2019-04-23T07:26:55.910Z,3.67
2019-04-23T07:29:31.397Z,4.35
2019-04-23T07:32:05.692Z,3.80
2019-04-23T07:34:41.942Z,3.60
2019-04-23T07:39:58.604Z,3.77
2019-04-23T07:42:38.364Z,4.03
2019-04-23T07:44:59.444Z,4.50
2019-04-23T07:50:09.856Z,4.50
2019-04-23T07:52:35.567Z,4.25
2019-04-23T07:57:34.057Z,4.75
2019-04-23T08:00:27.604Z,4.00
2019-04-23T08:02:33.585Z,4.40
2019-04-23T08:05:21.549Z,3.98
2019-04-23T08:07:45.320Z,3.65
2019-04-23T08:10:17.014Z,4.15
2019-04-23T08:12:48.096Z,4.42
2019-04-23T08:15:23.069Z,4.55
2019-04-23T08:17:56.229Z,5.72
2019-04-23T08:23:06.766Z,4.78
2019-04-23T08:25:35.497Z,4.70
2019-04-23T08:28:11.867Z,4.20
2019-04-23T08:30:42.417Z,4.00
2019-04-23T08:35:42.956Z,4.62
2019-04-23T08:38:21.169Z,4.53
2019-04-23T08:40:57.217Z,4.70
2019-04-23T08:43:31.488Z,4.47
2019-04-23T08:45:53.399Z,4.60
2019-04-23T08:48:27.815Z,4.78
2019-04-23T08:50:57.952Z,4.85
2019-04-23T09:03:40.851Z,4.97
2019-04-23T09:06:10.754Z,4.65
2019-04-23T09:08:44.382Z,4.20
2019-04-23T09:21:22.560Z,4.62
2019-04-23T09:23:54.017Z,4.28
2019-04-23T09:26:26.104Z,4.78
2019-04-23T09:34:20.707Z,4.90
2019-04-23T09:39:52.234Z,5.15
2019-04-23T09:42:24.092Z,4.78
2019-04-23T09:45:03.690Z,4.20
2019-04-23T09:47:46.090Z,4.90
2019-04-23T09:50:15.684Z,4.28
2019-04-23T09:52:57.289Z,4.87
2019-04-23T10:00:34.666Z,5.45
2019-04-23T10:02:45.701Z,4.92
2019-04-23T10:05:14.127Z,4.37
2019-04-23T10:07:44.143Z,4.70
2019-04-23T10:12:35.911Z,4.65
2019-04-23T10:15:13.783Z,4.83
2019-04-23T10:17:40.296Z,4.33
2019-04-23T10:20:11.052Z,4.57
2019-04-23T10:22:42.226Z,4.37
2019-04-23T10:25:12.982Z,4.17
2019-04-23T10:27:43.367Z,4.25
2019-04-23T10:30:14.493Z,4.83
2019-04-23T10:32:45.296Z,4.20
2019-04-23T10:35:28.893Z,4.55
2019-04-23T10:37:56.555Z,4.72
2019-04-23T10:42:54.375Z,4.50
2019-04-23T10:45:44.715Z,4.55
2019-04-23T10:51:09.067Z,5.00
2019-04-23T10:53:39.935Z,4.40
2019-04-23T10:56:11.329Z,4.35
2019-04-23T10:58:38.360Z,4.97
2019-04-23T11:01:16.413Z,4.80
2019-04-23T11:03:58.886Z,4.70
2019-04-23T11:06:23.515Z,4.30
2019-04-23T11:09:06.198Z,4.85
2019-04-23T11:11:40.743Z,4.90
2019-04-23T11:14:12.277Z,4.87
2019-04-23T11:16:49.258Z,5.05
2019-04-23T11:21:42.839Z,4.70
2019-04-23T11:29:22.549Z,4.78
2019-04-23T11:31:58.329Z,5.20
2019-04-23T11:34:47.824Z,5.00
2019-04-23T11:39:31.846Z,5.15
2019-04-23T11:42:06.660Z,4.92
2019-04-23T11:44:36.504Z,4.25
2019-04-23T11:47:07.768Z,5.03
2019-04-23T11:52:29.093Z,5.17
2019-04-23T11:54:39.021Z,4.67
2019-04-23T11:59:47.322Z,4.87
2019-04-23T12:02:31.122Z,5.08
2019-04-23T12:05:20.802Z,4.97
2019-04-23T12:07:41.363Z,4.70
2019-04-23T12:10:31.677Z,5.35
2019-04-23T12:12:49.533Z,4.45
2019-04-23T12:15:32.671Z,5.30
2019-04-23T12:18:04.872Z,5.30
2019-04-23T12:23:28.181Z,5.40
2019-04-23T12:27:59.568Z,5.10
2019-04-23T12:30:42.077Z,4.95
2019-04-23T12:33:11.594Z,5.10
2019-04-23T12:35:39.048Z,5.12
2019-04-23T12:38:16.886Z,5.12
2019-04-23T12:40:46.030Z,4.70
2019-04-23T12:45:47.001Z,5.28
2019-04-23T12:48:33.825Z,5.55
2019-04-23T12:58:27.635Z,5.20
2019-04-23T13:00:58.225Z,4.72
2019-04-23T13:03:37.235Z,4.87
2019-04-23T13:05:59.181Z,4.70
2019-04-23T13:08:46.618Z,5.05
2019-04-23T13:13:48.858Z,4.67
2019-04-23T13:16:18.129Z,5.20
2019-04-23T13:21:38.432Z,5.12
2019-04-23T13:26:17.821Z,5.35
2019-04-23T13:28:52.513Z,5.37
2019-04-23T13:31:30.067Z,4.97
2019-04-23T13:33:58.049Z,5.42
2019-04-23T13:39:10.045Z,4.90
2019-04-23T13:41:32.402Z,5.35
2019-04-23T13:46:34.465Z,5.08
2019-04-23T13:49:18.434Z,4.65
2019-04-23T13:52:12.802Z,5.10
2019-04-23T13:54:44.072Z,5.35
2019-04-23T13:57:23.921Z,5.35
2019-04-23T13:59:29.034Z,5.12
2019-04-23T14:01:46.937Z,4.70
2019-04-23T14:07:23.384Z,4.90
2019-04-23T14:10:00.574Z,5.53
2019-04-23T14:15:04.276Z,4.65
2019-04-23T14:17:38.108Z,4.95
2019-04-23T14:20:03.813Z,4.87
2019-04-23T14:27:52.126Z,4.58
2019-04-23T14:38:09.427Z,5.03
2019-04-23T14:40:26.622Z,4.87
2019-04-23T14:43:07.394Z,5.03
2019-04-23T14:53:16.624Z,4.72
2019-04-23T15:03:28.744Z,6.50
2019-04-23T15:08:28.731Z,5.22
2019-04-23T15:11:06.813Z,5.05
2019-04-23T15:13:28.265Z,5.05
2019-04-23T15:16:07.965Z,5.85
2019-04-23T15:18:44.758Z,5.95
2019-04-23T15:21:37.648Z,5.10
2019-04-23T15:31:33.210Z,4.62
2019-04-23T15:41:39.640Z,4.97
2019-04-23T15:51:47.441Z,4.85
2019-04-23T15:54:19.661Z,5.62
2019-04-23T16:01:39.544Z,5.40
2019-04-23T16:03:51.744Z,5.67
2019-04-23T16:06:25.404Z,5.33
2019-04-23T16:11:47.376Z,5.40
2019-04-23T16:17:04.523Z,10.08
2019-04-23T16:19:53.440Z,5.58
2019-04-23T16:22:20.225Z,6.10
2019-04-23T16:27:14.961Z,4.95
2019-04-23T16:30:09.720Z,4.85
2019-04-23T16:32:57.866Z,5.30
2019-04-23T16:38:10.163Z,7.15
2019-04-23T16:40:33.101Z,6.60
2019-04-23T16:50:41.716Z,5.90
2019-04-23T16:58:21.872Z,7.10
2019-04-23T17:00:51.630Z,6.10
2019-04-23T17:13:30.887Z,5.47
2019-04-23T17:16:06.715Z,5.45
2019-04-23T17:18:31.289Z,6.20
2019-04-23T17:21:10.229Z,7.28
2019-04-23T17:26:17.178Z,5.83
2019-04-23T17:28:35.893Z,6.22
2019-04-23T17:38:56.866Z,7.62
2019-04-23T17:41:41.722Z,6.90
2019-04-23T17:44:18.052Z,6.17
2019-04-23T17:46:47.039Z,7.12
2019-04-23T17:51:48.836Z,6.80
2019-04-23T17:54:19.414Z,6.30
2019-04-23T17:59:28.324Z,6.30
2019-04-23T18:02:21.154Z,5.92
2019-04-23T18:07:23.185Z,6.37
2019-04-23T18:09:57.058Z,6.25
2019-04-23T18:14:27.068Z,6.12
2019-04-23T18:17:13.063Z,6.40
2019-04-23T18:19:53.570Z,6.45
2019-04-23T18:22:22.118Z,6.20
2019-04-23T18:25:09.582Z,6.60
2019-04-23T18:27:48.342Z,7.20
2019-04-23T18:30:35.219Z,7.30
2019-04-23T18:35:40.461Z,7.33
2019-04-23T18:43:32.716Z,6.90
2019-04-23T18:51:03.716Z,7.40
2019-04-23T18:53:43.545Z,8.25
2019-04-23T19:01:11.319Z,8.23
2019-04-23T19:04:07.174Z,8.13
2019-04-23T19:06:37.740Z,7.90
2019-04-23T19:17:33.610Z,8.80
2019-04-23T19:27:18.373Z,6.70
2019-04-23T19:29:52.021Z,7.85
2019-04-23T19:32:33.581Z,6.92
2019-04-23T19:37:18.361Z,6.97
2019-04-23T19:40:04.819Z,7.20
2019-04-23T19:42:18.024Z,7.42
2019-04-23T19:44:54.444Z,6.60
2019-04-23T19:47:38.538Z,7.10
2019-04-23T19:50:02.104Z,6.42
2019-04-23T19:52:52.134Z,6.78
2019-04-23T19:54:58.495Z,7.20
2019-04-23T19:57:42.735Z,6.70
2019-04-23T20:00:13.076Z,6.83
2019-04-23T20:02:58.201Z,7.03
2019-04-23T20:05:10.897Z,7.65
2019-04-23T20:07:54.865Z,6.97
2019-04-23T20:10:12.369Z,6.97
2019-04-23T20:13:01.524Z,6.83
2019-04-23T20:15:08.282Z,6.90
2019-04-23T20:17:51.603Z,8.43
2019-04-23T20:20:26.513Z,7.53
2019-04-23T20:22:56.771Z,7.72
2019-04-23T20:25:53.720Z,7.62
2019-04-23T20:36:05.588Z,8.45
2019-04-23T20:40:56.921Z,8.63
2019-04-23T20:43:27.237Z,9.23
2019-04-23T20:45:59.992Z,9.15
2019-04-23T20:48:32.509Z,9.85
2019-04-23T20:51:20.326Z,10.53
2019-04-23T20:53:38.274Z,10.30
2019-04-23T20:58:43.927Z,9.98
2019-04-23T21:01:22.268Z,10.43
2019-04-23T21:03:51.570Z,9.68
2019-04-23T21:09:10.035Z,8.43
2019-04-23T21:11:32.651Z,8.50
2019-04-23T21:14:03.318Z,9.33
2019-04-23T21:19:10.123Z,8.08
2019-04-23T21:21:26.241Z,8.25
2019-04-23T21:23:55.068Z,7.65
2019-04-23T21:26:35.782Z,7.05
2019-04-23T21:29:02.169Z,7.00
2019-04-23T21:31:48.606Z,7.47
2019-04-23T21:34:35.360Z,6.95
2019-04-23T21:36:45.705Z,8.15
2019-04-23T21:42:14.698Z,7.15
2019-04-23T21:44:28.884Z,6.72
2019-04-23T21:47:04.679Z,6.55
2019-04-23T21:52:05.021Z,6.47
2019-04-23T21:54:39.503Z,6.55
2019-04-23T21:57:19.534Z,6.35
2019-04-23T21:59:44.663Z,5.90
2019-04-23T22:02:14.981Z,6.05
2019-04-23T22:04:44.998Z,6.22
2019-04-23T22:07:15.775Z,7.08
2019-04-23T22:09:50.425Z,7.12
2019-04-23T22:17:27.216Z,6.55
2019-04-23T22:20:03.398Z,6.92
2019-04-23T22:22:32.035Z,6.92
2019-04-23T22:24:58.618Z,6.95
2019-04-23T22:27:26.092Z,6.62
2019-04-23T22:29:59.530Z,6.30
2019-04-23T22:32:40.451Z,6.50
2019-04-23T22:35:07.828Z,6.65
2019-04-23T22:37:42.431Z,6.30
2019-04-23T22:40:09.439Z,6.70
2019-04-23T22:43:07.348Z,5.90
2019-04-23T22:45:16.067Z,6.37
2019-04-23T22:47:47.978Z,6.70
2019-04-23T22:50:19.098Z,6.58
2019-04-23T22:52:53.857Z,6.67
2019-04-23T22:55:12.718Z,7.40
2019-04-23T23:00:30.039Z,7.30
2019-04-23T23:03:06.373Z,6.92
2019-04-23T23:05:50.657Z,8.43
2019-04-23T23:08:11.394Z,7.70
2019-04-23T23:10:46.457Z,8.33
2019-04-23T23:13:16.499Z,8.58
2019-04-23T23:15:51.333Z,8.60
2019-04-23T23:20:55.861Z,10.28
2019-04-23T23:23:21.047Z,9.35
2019-04-23T23:31:04.019Z,9.98
2019-04-23T23:33:23.366Z,9.50
2019-04-23T23:35:58.868Z,8.88
2019-04-23T23:38:33.493Z,8.40
2019-04-23T23:41:12.925Z,9.08
2019-04-23T23:46:13.767Z,9.40
2019-04-23T23:48:34.993Z,10.38
2019-04-23T23:52:21.747Z,10.15
2019-04-23T23:54:52.648Z,10.72
2019-04-23T23:57:23.365Z,9.20
